sensor_id;sensor_type;location;lat;lon;timestamp;P1;durP1;ratioP1;P2;durP2;ratioP2
19927;SDS011;10126;50.876;4.470;2023-09-07T00:00:53;0.10;;;0.10;;
19927;SDS011;10126;50.876;4.470;2023-09-07T00:02:53;0.10;;;0.10;;
19927;SDS011;10126;50.876;4.470;2023-09-07T00:04:54;0.10;;;0.10;;
19927;SDS011;10126;50.876;4.470;2023-09-07T00:06:55;0.10;;;0.10;;
19927;SDS011;10126;50.876;4.470;2023-09-07T00:08:55;0.10;;;0.10;;
19927;SDS011;10126;50.876;4.470;2023-09-07T00:11:02;0.10;;;0.10;;
19927;SDS011;10126;50.876;4.470;2023-09-07T00:13:03;0.10;;;0.10;;
19927;SDS011;10126;50.876;4.470;2023-09-07T00:15:04;0.10;;;0.10;;
19927;SDS011;10126;50.876;4.470;2023-09-07T00:17:06;0.10;;;0.10;;
19927;SDS011;10126;50.876;4.470;2023-09-07T00:19:07;0.10;;;0.10;;
19927;SDS011;10126;50.876;4.470;2023-09-07T00:21:07;0.10;;;0.10;;
19927;SDS011;10126;50.876;4.470;2023-09-07T00:23:08;0.10;;;0.10;;
19927;SDS011;10126;50.876;4.470;2023-09-07T00:25:09;0.10;;;0.10;;
19927;SDS011;10126;50.876;4.470;2023-09-07T00:27:10;0.10;;;0.10;;
19927;SDS011;10126;50.876;4.470;2023-09-07T00:29:11;0.10;;;0.10;;
19927;SDS011;10126;50.876;4.470;2023-09-07T00:31:12;0.10;;;0.10;;
19927;SDS011;10126;50.876;4.470;2023-09-07T00:33:13;0.10;;;0.10;;
19927;SDS011;10126;50.876;4.470;2023-09-07T00:35:13;0.10;;;0.10;;
19927;SDS011;10126;50.876;4.470;2023-09-07T00:37:14;0.10;;;0.10;;
19927;SDS011;10126;50.876;4.470;2023-09-07T00:39:14;0.10;;;0.10;;
19927;SDS011;10126;50.876;4.470;2023-09-07T00:41:15;0.10;;;0.10;;
19927;SDS011;10126;50.876;4.470;2023-09-07T00:43:16;0.00;;;0.00;;
19927;SDS011;10126;50.876;4.470;2023-09-07T00:45:16;0.10;;;0.10;;
19927;SDS011;10126;50.876;4.470;2023-09-07T00:47:17;0.10;;;0.10;;
19927;SDS011;10126;50.876;4.470;2023-09-07T00:49:18;0.10;;;0.10;;
19927;SDS011;10126;50.876;4.470;2023-09-07T00:51:19;0.10;;;0.10;;
19927;SDS011;10126;50.876;4.470;2023-09-07T00:53:19;0.10;;;0.10;;
19927;SDS011;10126;50.876;4.470;2023-09-07T00:55:20;0.10;;;0.10;;
19927;SDS011;10126;50.876;4.470;2023-09-07T00:57:22;0.10;;;0.10;;
19927;SDS011;10126;50.876;4.470;2023-09-07T00:59:23;0.00;;;0.00;;
19927;SDS011;10126;50.876;4.470;2023-09-07T01:01:25;0.10;;;0.10;;
19927;SDS011;10126;50.876;4.470;2023-09-07T01:03:26;0.10;;;0.10;;
19927;SDS011;10126;50.876;4.470;2023-09-07T01:06:01;0.10;;;0.10;;
19927;SDS011;10126;50.876;4.470;2023-09-07T01:07:59;0.10;;;0.10;;
19927;SDS011;10126;50.876;4.470;2023-09-07T01:10:05;0.10;;;0.10;;
19927;SDS011;10126;50.876;4.470;2023-09-07T01:12:08;0.10;;;0.10;;
19927;SDS011;10126;50.876;4.470;2023-09-07T01:14:14;0.10;;;0.10;;
19927;SDS011;10126;50.876;4.470;2023-09-07T01:16:15;0.10;;;0.10;;
19927;SDS011;10126;50.876;4.470;2023-09-07T01:18:16;0.10;;;0.10;;
19927;SDS011;10126;50.876;4.470;2023-09-07T01:20:17;0.10;;;0.10;;
19927;SDS011;10126;50.876;4.470;2023-09-07T01:22:20;0.10;;;0.10;;
19927;SDS011;10126;50.876;4.470;2023-09-07T01:24:25;0.10;;;0.10;;
19927;SDS011;10126;50.876;4.470;2023-09-07T01:26:29;0.10;;;0.10;;
19927;SDS011;10126;50.876;4.470;2023-09-07T01:28:30;0.10;;;0.10;;
19927;SDS011;10126;50.876;4.470;2023-09-07T01:30:31;0.00;;;0.00;;
19927;SDS011;10126;50.876;4.470;2023-09-07T01:32:34;0.10;;;0.10;;
19927;SDS011;10126;50.876;4.470;2023-09-07T01:34:36;0.10;;;0.10;;
19927;SDS011;10126;50.876;4.470;2023-09-07T01:36:37;0.00;;;0.00;;
19927;SDS011;10126;50.876;4.470;2023-09-07T01:38:37;0.10;;;0.10;;
19927;SDS011;10126;50.876;4.470;2023-09-07T01:40:38;0.10;;;0.10;;
19927;SDS011;10126;50.876;4.470;2023-09-07T01:42:39;0.10;;;0.10;;
19927;SDS011;10126;50.876;4.470;2023-09-07T01:44:39;0.10;;;0.10;;
19927;SDS011;10126;50.876;4.470;2023-09-07T01:46:40;0.20;;;0.20;;
19927;SDS011;10126;50.876;4.470;2023-09-07T01:48:41;0.10;;;0.10;;
19927;SDS011;10126;50.876;4.470;2023-09-07T01:50:42;0.10;;;0.10;;
19927;SDS011;10126;50.876;4.470;2023-09-07T01:52:42;0.10;;;0.10;;
19927;SDS011;10126;50.876;4.470;2023-09-07T01:54:47;0.10;;;0.10;;
19927;SDS011;10126;50.876;4.470;2023-09-07T01:56:48;0.10;;;0.10;;
19927;SDS011;10126;50.876;4.470;2023-09-07T01:58:48;0.10;;;0.10;;
19927;SDS011;10126;50.876;4.470;2023-09-07T02:00:49;0.10;;;0.10;;
19927;SDS011;10126;50.876;4.470;2023-09-07T02:02:50;0.10;;;0.10;;
19927;SDS011;10126;50.876;4.470;2023-09-07T02:04:51;0.10;;;0.10;;
19927;SDS011;10126;50.876;4.470;2023-09-07T02:06:51;0.10;;;0.10;;
19927;SDS011;10126;50.876;4.470;2023-09-07T02:08:52;0.10;;;0.10;;
19927;SDS011;10126;50.876;4.470;2023-09-07T02:10:53;0.10;;;0.10;;
19927;SDS011;10126;50.876;4.470;2023-09-07T02:12:53;0.10;;;0.10;;
19927;SDS011;10126;50.876;4.470;2023-09-07T02:14:58;0.10;;;0.10;;
19927;SDS011;10126;50.876;4.470;2023-09-07T02:17:01;0.10;;;0.10;;
19927;SDS011;10126;50.876;4.470;2023-09-07T02:19:02;0.10;;;0.10;;
19927;SDS011;10126;50.876;4.470;2023-09-07T02:21:05;0.10;;;0.10;;
19927;SDS011;10126;50.876;4.470;2023-09-07T02:23:06;0.10;;;0.10;;
19927;SDS011;10126;50.876;4.470;2023-09-07T02:25:06;0.10;;;0.10;;
19927;SDS011;10126;50.876;4.470;2023-09-07T02:27:07;0.10;;;0.10;;
19927;SDS011;10126;50.876;4.470;2023-09-07T02:29:08;0.10;;;0.10;;
19927;SDS011;10126;50.876;4.470;2023-09-07T02:31:09;0.10;;;0.10;;
19927;SDS011;10126;50.876;4.470;2023-09-07T02:33:09;0.10;;;0.10;;
19927;SDS011;10126;50.876;4.470;2023-09-07T02:35:10;0.10;;;0.10;;
19927;SDS011;10126;50.876;4.470;2023-09-07T02:37:11;0.10;;;0.10;;
19927;SDS011;10126;50.876;4.470;2023-09-07T02:39:11;0.00;;;0.00;;
19927;SDS011;10126;50.876;4.470;2023-09-07T02:41:12;0.10;;;0.10;;
19927;SDS011;10126;50.876;4.470;2023-09-07T02:43:13;0.10;;;0.10;;
19927;SDS011;10126;50.876;4.470;2023-09-07T02:45:13;0.10;;;0.10;;
19927;SDS011;10126;50.876;4.470;2023-09-07T02:47:14;0.10;;;0.10;;
19927;SDS011;10126;50.876;4.470;2023-09-07T02:49:15;0.10;;;0.10;;
19927;SDS011;10126;50.876;4.470;2023-09-07T02:51:16;0.10;;;0.10;;
19927;SDS011;10126;50.876;4.470;2023-09-07T02:53:17;0.00;;;0.00;;
19927;SDS011;10126;50.876;4.470;2023-09-07T02:55:18;0.00;;;0.00;;
19927;SDS011;10126;50.876;4.470;2023-09-07T02:57:19;0.10;;;0.10;;
19927;SDS011;10126;50.876;4.470;2023-09-07T02:59:19;0.00;;;0.00;;
19927;SDS011;10126;50.876;4.470;2023-09-07T03:01:20;0.10;;;0.10;;
19927;SDS011;10126;50.876;4.470;2023-09-07T03:03:21;0.13;;;0.13;;
19927;SDS011;10126;50.876;4.470;2023-09-07T03:05:22;0.10;;;0.10;;
19927;SDS011;10126;50.876;4.470;2023-09-07T03:07:22;0.20;;;0.20;;
19927;SDS011;10126;50.876;4.470;2023-09-07T03:09:23;0.10;;;0.10;;
19927;SDS011;10126;50.876;4.470;2023-09-07T03:11:23;0.10;;;0.10;;
19927;SDS011;10126;50.876;4.470;2023-09-07T03:13:24;0.10;;;0.10;;
19927;SDS011;10126;50.876;4.470;2023-09-07T03:15:25;0.10;;;0.10;;
19927;SDS011;10126;50.876;4.470;2023-09-07T03:17:26;0.10;;;0.10;;
19927;SDS011;10126;50.876;4.470;2023-09-07T03:19:27;0.10;;;0.10;;
19927;SDS011;10126;50.876;4.470;2023-09-07T03:21:27;0.10;;;0.10;;
19927;SDS011;10126;50.876;4.470;2023-09-07T03:23:29;0.10;;;0.10;;
19927;SDS011;10126;50.876;4.470;2023-09-07T03:25:31;0.10;;;0.10;;
19927;SDS011;10126;50.876;4.470;2023-09-07T03:27:32;0.10;;;0.10;;
19927;SDS011;10126;50.876;4.470;2023-09-07T03:29:32;0.10;;;0.10;;
19927;SDS011;10126;50.876;4.470;2023-09-07T03:31:35;0.10;;;0.10;;
19927;SDS011;10126;50.876;4.470;2023-09-07T03:33:36;0.10;;;0.10;;
19927;SDS011;10126;50.876;4.470;2023-09-07T03:35:36;0.10;;;0.10;;
19927;SDS011;10126;50.876;4.470;2023-09-07T03:37:38;0.10;;;0.10;;
19927;SDS011;10126;50.876;4.470;2023-09-07T03:39:38;0.17;;;0.17;;
19927;SDS011;10126;50.876;4.470;2023-09-07T03:41:39;0.10;;;0.10;;
19927;SDS011;10126;50.876;4.470;2023-09-07T03:43:40;0.10;;;0.10;;
19927;SDS011;10126;50.876;4.470;2023-09-07T03:45:40;0.10;;;0.10;;
19927;SDS011;10126;50.876;4.470;2023-09-07T03:47:41;0.10;;;0.10;;
19927;SDS011;10126;50.876;4.470;2023-09-07T03:49:42;0.10;;;0.10;;
19927;SDS011;10126;50.876;4.470;2023-09-07T03:51:44;0.10;;;0.10;;
19927;SDS011;10126;50.876;4.470;2023-09-07T03:53:44;0.10;;;0.10;;
19927;SDS011;10126;50.876;4.470;2023-09-07T03:55:45;0.10;;;0.10;;
19927;SDS011;10126;50.876;4.470;2023-09-07T03:57:46;0.10;;;0.10;;
19927;SDS011;10126;50.876;4.470;2023-09-07T03:59:47;0.10;;;0.10;;
19927;SDS011;10126;50.876;4.470;2023-09-07T04:01:48;0.10;;;0.10;;
19927;SDS011;10126;50.876;4.470;2023-09-07T04:03:49;0.10;;;0.10;;
19927;SDS011;10126;50.876;4.470;2023-09-07T04:05:50;0.10;;;0.10;;
19927;SDS011;10126;50.876;4.470;2023-09-07T04:07:51;0.10;;;0.10;;
19927;SDS011;10126;50.876;4.470;2023-09-07T04:09:52;0.10;;;0.10;;
19927;SDS011;10126;50.876;4.470;2023-09-07T04:11:52;0.10;;;0.10;;
19927;SDS011;10126;50.876;4.470;2023-09-07T04:13:53;0.10;;;0.10;;
19927;SDS011;10126;50.876;4.470;2023-09-07T04:15:54;0.10;;;0.10;;
19927;SDS011;10126;50.876;4.470;2023-09-07T04:17:54;0.10;;;0.10;;
19927;SDS011;10126;50.876;4.470;2023-09-07T04:19:55;0.17;;;0.17;;
19927;SDS011;10126;50.876;4.470;2023-09-07T04:21:58;0.10;;;0.10;;
19927;SDS011;10126;50.876;4.470;2023-09-07T04:24:00;0.10;;;0.10;;
19927;SDS011;10126;50.876;4.470;2023-09-07T04:26:07;0.10;;;0.10;;
19927;SDS011;10126;50.876;4.470;2023-09-07T04:28:09;0.10;;;0.10;;
19927;SDS011;10126;50.876;4.470;2023-09-07T04:30:09;0.10;;;0.10;;
19927;SDS011;10126;50.876;4.470;2023-09-07T04:32:10;0.10;;;0.10;;
19927;SDS011;10126;50.876;4.470;2023-09-07T04:34:11;0.10;;;0.10;;
19927;SDS011;10126;50.876;4.470;2023-09-07T04:36:12;0.10;;;0.10;;
19927;SDS011;10126;50.876;4.470;2023-09-07T04:38:13;0.10;;;0.10;;
19927;SDS011;10126;50.876;4.470;2023-09-07T04:40:14;0.10;;;0.10;;
19927;SDS011;10126;50.876;4.470;2023-09-07T04:42:15;0.10;;;0.10;;
19927;SDS011;10126;50.876;4.470;2023-09-07T04:44:15;0.10;;;0.10;;
19927;SDS011;10126;50.876;4.470;2023-09-07T04:46:16;0.10;;;0.10;;
19927;SDS011;10126;50.876;4.470;2023-09-07T04:48:17;0.10;;;0.10;;
19927;SDS011;10126;50.876;4.470;2023-09-07T04:50:17;0.10;;;0.10;;
19927;SDS011;10126;50.876;4.470;2023-09-07T04:52:18;0.10;;;0.10;;
19927;SDS011;10126;50.876;4.470;2023-09-07T04:54:18;0.10;;;0.10;;
19927;SDS011;10126;50.876;4.470;2023-09-07T04:56:19;0.10;;;0.10;;
19927;SDS011;10126;50.876;4.470;2023-09-07T04:58:21;0.20;;;0.20;;
19927;SDS011;10126;50.876;4.470;2023-09-07T05:00:22;0.10;;;0.10;;
19927;SDS011;10126;50.876;4.470;2023-09-07T05:02:23;0.10;;;0.10;;
19927;SDS011;10126;50.876;4.470;2023-09-07T05:04:23;0.10;;;0.10;;
19927;SDS011;10126;50.876;4.470;2023-09-07T05:06:24;0.10;;;0.10;;
19927;SDS011;10126;50.876;4.470;2023-09-07T05:08:26;0.10;;;0.10;;
19927;SDS011;10126;50.876;4.470;2023-09-07T05:10:27;0.10;;;0.10;;
19927;SDS011;10126;50.876;4.470;2023-09-07T05:12:27;0.10;;;0.10;;
19927;SDS011;10126;50.876;4.470;2023-09-07T05:14:28;0.10;;;0.10;;
19927;SDS011;10126;50.876;4.470;2023-09-07T05:16:29;0.10;;;0.10;;
19927;SDS011;10126;50.876;4.470;2023-09-07T05:18:30;0.10;;;0.10;;
19927;SDS011;10126;50.876;4.470;2023-09-07T05:20:30;0.10;;;0.10;;
19927;SDS011;10126;50.876;4.470;2023-09-07T05:22:31;0.10;;;0.10;;
19927;SDS011;10126;50.876;4.470;2023-09-07T05:24:39;0.10;;;0.10;;
19927;SDS011;10126;50.876;4.470;2023-09-07T05:26:43;0.10;;;0.10;;
19927;SDS011;10126;50.876;4.470;2023-09-07T05:28:44;0.10;;;0.10;;
19927;SDS011;10126;50.876;4.470;2023-09-07T05:30:45;0.20;;;0.20;;
19927;SDS011;10126;50.876;4.470;2023-09-07T05:32:45;0.10;;;0.10;;
19927;SDS011;10126;50.876;4.470;2023-09-07T05:34:46;0.20;;;0.20;;
19927;SDS011;10126;50.876;4.470;2023-09-07T05:36:47;0.10;;;0.10;;
19927;SDS011;10126;50.876;4.470;2023-09-07T05:38:48;0.13;;;0.13;;
19927;SDS011;10126;50.876;4.470;2023-09-07T05:40:48;0.10;;;0.10;;
19927;SDS011;10126;50.876;4.470;2023-09-07T05:42:53;0.10;;;0.10;;
19927;SDS011;10126;50.876;4.470;2023-09-07T05:44:54;0.10;;;0.10;;
19927;SDS011;10126;50.876;4.470;2023-09-07T05:46:55;0.10;;;0.10;;
19927;SDS011;10126;50.876;4.470;2023-09-07T05:48:56;0.10;;;0.10;;
19927;SDS011;10126;50.876;4.470;2023-09-07T05:50:56;0.00;;;0.00;;
19927;SDS011;10126;50.876;4.470;2023-09-07T05:52:57;0.10;;;0.10;;
19927;SDS011;10126;50.876;4.470;2023-09-07T05:54:57;0.10;;;0.10;;
19927;SDS011;10126;50.876;4.470;2023-09-07T05:56:58;0.07;;;0.07;;
19927;SDS011;10126;50.876;4.470;2023-09-07T05:58:59;0.10;;;0.10;;
19927;SDS011;10126;50.876;4.470;2023-09-07T06:00:59;0.10;;;0.10;;
19927;SDS011;10126;50.876;4.470;2023-09-07T06:03:00;0.10;;;0.10;;
19927;SDS011;10126;50.876;4.470;2023-09-07T06:05:01;0.10;;;0.10;;
19927;SDS011;10126;50.876;4.470;2023-09-07T06:07:02;0.10;;;0.10;;
19927;SDS011;10126;50.876;4.470;2023-09-07T06:09:03;0.10;;;0.10;;
19927;SDS011;10126;50.876;4.470;2023-09-07T06:11:04;0.10;;;0.10;;
19927;SDS011;10126;50.876;4.470;2023-09-07T06:13:05;0.03;;;0.03;;
19927;SDS011;10126;50.876;4.470;2023-09-07T06:15:06;0.00;;;0.00;;
19927;SDS011;10126;50.876;4.470;2023-09-07T06:17:07;0.00;;;0.00;;
19927;SDS011;10126;50.876;4.470;2023-09-07T06:19:08;0.00;;;0.00;;
19927;SDS011;10126;50.876;4.470;2023-09-07T06:21:09;0.00;;;0.00;;
19927;SDS011;10126;50.876;4.470;2023-09-07T06:23:09;0.00;;;0.00;;
19927;SDS011;10126;50.876;4.470;2023-09-07T06:25:10;0.00;;;0.00;;
19927;SDS011;10126;50.876;4.470;2023-09-07T06:27:11;0.00;;;0.00;;
19927;SDS011;10126;50.876;4.470;2023-09-07T06:29:11;0.00;;;0.00;;
19927;SDS011;10126;50.876;4.470;2023-09-07T06:31:12;0.00;;;0.00;;
19927;SDS011;10126;50.876;4.470;2023-09-07T06:33:13;0.00;;;0.00;;
19927;SDS011;10126;50.876;4.470;2023-09-07T06:35:13;0.00;;;0.00;;
19927;SDS011;10126;50.876;4.470;2023-09-07T06:37:14;0.00;;;0.00;;
19927;SDS011;10126;50.876;4.470;2023-09-07T06:39:15;0.00;;;0.00;;
19927;SDS011;10126;50.876;4.470;2023-09-07T06:41:15;0.00;;;0.00;;
19927;SDS011;10126;50.876;4.470;2023-09-07T06:43:16;0.00;;;0.00;;
19927;SDS011;10126;50.876;4.470;2023-09-07T06:45:17;0.00;;;0.00;;
19927;SDS011;10126;50.876;4.470;2023-09-07T06:47:17;0.00;;;0.00;;
19927;SDS011;10126;50.876;4.470;2023-09-07T06:49:18;0.05;;;0.05;;
19927;SDS011;10126;50.876;4.470;2023-09-07T06:51:19;0.00;;;0.00;;
19927;SDS011;10126;50.876;4.470;2023-09-07T06:53:20;0.00;;;0.00;;
19927;SDS011;10126;50.876;4.470;2023-09-07T06:55:20;0.00;;;0.00;;
19927;SDS011;10126;50.876;4.470;2023-09-07T06:57:21;0.00;;;0.00;;
19927;SDS011;10126;50.876;4.470;2023-09-07T06:59:22;0.00;;;0.00;;
19927;SDS011;10126;50.876;4.470;2023-09-07T07:01:22;0.00;;;0.00;;
19927;SDS011;10126;50.876;4.470;2023-09-07T07:03:27;0.00;;;0.00;;
19927;SDS011;10126;50.876;4.470;2023-09-07T07:05:29;0.00;;;0.00;;
19927;SDS011;10126;50.876;4.470;2023-09-07T07:07:30;0.00;;;0.00;;
19927;SDS011;10126;50.876;4.470;2023-09-07T07:09:30;0.00;;;0.00;;
19927;SDS011;10126;50.876;4.470;2023-09-07T07:11:31;0.00;;;0.00;;
19927;SDS011;10126;50.876;4.470;2023-09-07T07:13:32;0.00;;;0.00;;
19927;SDS011;10126;50.876;4.470;2023-09-07T07:15:33;0.00;;;0.00;;
19927;SDS011;10126;50.876;4.470;2023-09-07T07:17:35;0.00;;;0.00;;
19927;SDS011;10126;50.876;4.470;2023-09-07T07:19:36;0.00;;;0.00;;
19927;SDS011;10126;50.876;4.470;2023-09-07T07:21:36;0.00;;;0.00;;
19927;SDS011;10126;50.876;4.470;2023-09-07T07:23:37;0.00;;;0.00;;
19927;SDS011;10126;50.876;4.470;2023-09-07T07:25:38;0.00;;;0.00;;
19927;SDS011;10126;50.876;4.470;2023-09-07T07:27:38;0.00;;;0.00;;
19927;SDS011;10126;50.876;4.470;2023-09-07T07:29:39;0.00;;;0.00;;
19927;SDS011;10126;50.876;4.470;2023-09-07T07:31:40;0.10;;;0.10;;
19927;SDS011;10126;50.876;4.470;2023-09-07T07:33:40;0.00;;;0.00;;
19927;SDS011;10126;50.876;4.470;2023-09-07T07:35:41;0.00;;;0.00;;
19927;SDS011;10126;50.876;4.470;2023-09-07T07:37:42;0.00;;;0.00;;
19927;SDS011;10126;50.876;4.470;2023-09-07T07:39:42;0.00;;;0.00;;
19927;SDS011;10126;50.876;4.470;2023-09-07T07:41:43;0.00;;;0.00;;
19927;SDS011;10126;50.876;4.470;2023-09-07T07:43:45;0.00;;;0.00;;
19927;SDS011;10126;50.876;4.470;2023-09-07T07:45:46;0.00;;;0.00;;
19927;SDS011;10126;50.876;4.470;2023-09-07T07:47:48;0.00;;;0.00;;
19927;SDS011;10126;50.876;4.470;2023-09-07T07:49:49;0.10;;;0.10;;
19927;SDS011;10126;50.876;4.470;2023-09-07T07:51:49;0.00;;;0.00;;
19927;SDS011;10126;50.876;4.470;2023-09-07T07:53:51;0.00;;;0.00;;
19927;SDS011;10126;50.876;4.470;2023-09-07T07:55:53;0.00;;;0.00;;
19927;SDS011;10126;50.876;4.470;2023-09-07T07:57:56;0.10;;;0.10;;
19927;SDS011;10126;50.876;4.470;2023-09-07T07:59:56;0.00;;;0.00;;
19927;SDS011;10126;50.876;4.470;2023-09-07T08:01:57;0.10;;;0.10;;
19927;SDS011;10126;50.876;4.470;2023-09-07T08:03:57;0.00;;;0.00;;
19927;SDS011;10126;50.876;4.470;2023-09-07T08:05:58;0.00;;;0.00;;
19927;SDS011;10126;50.876;4.470;2023-09-07T08:07:59;0.00;;;0.00;;
19927;SDS011;10126;50.876;4.470;2023-09-07T08:10:00;0.00;;;0.00;;
19927;SDS011;10126;50.876;4.470;2023-09-07T08:12:00;0.00;;;0.00;;
19927;SDS011;10126;50.876;4.470;2023-09-07T08:14:05;0.00;;;0.00;;
19927;SDS011;10126;50.876;4.470;2023-09-07T08:16:05;0.00;;;0.00;;
19927;SDS011;10126;50.876;4.470;2023-09-07T08:18:06;0.00;;;0.00;;
19927;SDS011;10126;50.876;4.470;2023-09-07T08:20:09;0.00;;;0.00;;
19927;SDS011;10126;50.876;4.470;2023-09-07T08:22:11;0.00;;;0.00;;
19927;SDS011;10126;50.876;4.470;2023-09-07T08:24:12;0.00;;;0.00;;
19927;SDS011;10126;50.876;4.470;2023-09-07T08:26:13;0.00;;;0.00;;
19927;SDS011;10126;50.876;4.470;2023-09-07T08:28:14;0.00;;;0.00;;
19927;SDS011;10126;50.876;4.470;2023-09-07T08:30:17;0.00;;;0.00;;
19927;SDS011;10126;50.876;4.470;2023-09-07T08:32:18;0.10;;;0.10;;
19927;SDS011;10126;50.876;4.470;2023-09-07T08:34:19;0.00;;;0.00;;
19927;SDS011;10126;50.876;4.470;2023-09-07T08:36:22;0.00;;;0.00;;
19927;SDS011;10126;50.876;4.470;2023-09-07T08:38:23;0.00;;;0.00;;
19927;SDS011;10126;50.876;4.470;2023-09-07T08:40:27;0.00;;;0.00;;
19927;SDS011;10126;50.876;4.470;2023-09-07T08:42:30;0.00;;;0.00;;
19927;SDS011;10126;50.876;4.470;2023-09-07T08:44:30;0.10;;;0.10;;
19927;SDS011;10126;50.876;4.470;2023-09-07T08:46:33;0.00;;;0.00;;
19927;SDS011;10126;50.876;4.470;2023-09-07T08:48:35;0.00;;;0.00;;
19927;SDS011;10126;50.876;4.470;2023-09-07T08:50:37;0.00;;;0.00;;
19927;SDS011;10126;50.876;4.470;2023-09-07T08:52:40;0.00;;;0.00;;
19927;SDS011;10126;50.876;4.470;2023-09-07T08:54:43;0.00;;;0.00;;
19927;SDS011;10126;50.876;4.470;2023-09-07T08:56:45;0.00;;;0.00;;
19927;SDS011;10126;50.876;4.470;2023-09-07T08:58:46;0.00;;;0.00;;
19927;SDS011;10126;50.876;4.470;2023-09-07T09:00:49;0.00;;;0.00;;
19927;SDS011;10126;50.876;4.470;2023-09-07T09:02:51;0.32;;;0.00;;
19927;SDS011;10126;50.876;4.470;2023-09-07T09:04:54;0.10;;;0.10;;
19927;SDS011;10126;50.876;4.470;2023-09-07T09:06:54;0.00;;;0.00;;
19927;SDS011;10126;50.876;4.470;2023-09-07T09:08:56;0.00;;;0.00;;
19927;SDS011;10126;50.876;4.470;2023-09-07T09:11:03;0.00;;;0.00;;
19927;SDS011;10126;50.876;4.470;2023-09-07T09:13:03;0.00;;;0.00;;
19927;SDS011;10126;50.876;4.470;2023-09-07T09:15:04;0.00;;;0.00;;
19927;SDS011;10126;50.876;4.470;2023-09-07T09:17:06;0.00;;;0.00;;
19927;SDS011;10126;50.876;4.470;2023-09-07T09:19:12;0.00;;;0.00;;
19927;SDS011;10126;50.876;4.470;2023-09-07T09:21:14;0.00;;;0.00;;
19927;SDS011;10126;50.876;4.470;2023-09-07T09:23:14;0.00;;;0.00;;
19927;SDS011;10126;50.876;4.470;2023-09-07T09:25:15;0.00;;;0.00;;
19927;SDS011;10126;50.876;4.470;2023-09-07T09:27:16;0.00;;;0.00;;
19927;SDS011;10126;50.876;4.470;2023-09-07T09:29:23;0.00;;;0.00;;
19927;SDS011;10126;50.876;4.470;2023-09-07T09:31:24;0.00;;;0.00;;
19927;SDS011;10126;50.876;4.470;2023-09-07T09:33:25;0.00;;;0.00;;
19927;SDS011;10126;50.876;4.470;2023-09-07T09:35:28;0.00;;;0.00;;
19927;SDS011;10126;50.876;4.470;2023-09-07T09:37:29;0.00;;;0.00;;
19927;SDS011;10126;50.876;4.470;2023-09-07T09:39:31;0.00;;;0.00;;
19927;SDS011;10126;50.876;4.470;2023-09-07T09:41:32;0.00;;;0.00;;
19927;SDS011;10126;50.876;4.470;2023-09-07T09:43:36;0.00;;;0.00;;
19927;SDS011;10126;50.876;4.470;2023-09-07T09:45:37;0.00;;;0.00;;
19927;SDS011;10126;50.876;4.470;2023-09-07T09:47:38;0.00;;;0.00;;
19927;SDS011;10126;50.876;4.470;2023-09-07T09:49:40;0.10;;;0.10;;
19927;SDS011;10126;50.876;4.470;2023-09-07T09:51:42;0.00;;;0.00;;
19927;SDS011;10126;50.876;4.470;2023-09-07T09:53:43;0.00;;;0.00;;
19927;SDS011;10126;50.876;4.470;2023-09-07T09:55:45;0.00;;;0.00;;
19927;SDS011;10126;50.876;4.470;2023-09-07T09:57:47;0.00;;;0.00;;
19927;SDS011;10126;50.876;4.470;2023-09-07T09:59:47;0.00;;;0.00;;
19927;SDS011;10126;50.876;4.470;2023-09-07T10:01:49;0.00;;;0.00;;
19927;SDS011;10126;50.876;4.470;2023-09-07T10:03:51;0.00;;;0.00;;
19927;SDS011;10126;50.876;4.470;2023-09-07T10:05:54;0.00;;;0.00;;
19927;SDS011;10126;50.876;4.470;2023-09-07T10:07:59;0.00;;;0.00;;
19927;SDS011;10126;50.876;4.470;2023-09-07T10:10:05;0.00;;;0.00;;
19927;SDS011;10126;50.876;4.470;2023-09-07T10:12:13;0.00;;;0.00;;
19927;SDS011;10126;50.876;4.470;2023-09-07T10:14:14;0.00;;;0.00;;
19927;SDS011;10126;50.876;4.470;2023-09-07T10:16:14;0.00;;;0.00;;
19927;SDS011;10126;50.876;4.470;2023-09-07T10:18:16;0.00;;;0.00;;
19927;SDS011;10126;50.876;4.470;2023-09-07T10:20:17;0.00;;;0.00;;
19927;SDS011;10126;50.876;4.470;2023-09-07T10:22:21;0.00;;;0.00;;
19927;SDS011;10126;50.876;4.470;2023-09-07T10:24:26;0.00;;;0.00;;
19927;SDS011;10126;50.876;4.470;2023-09-07T10:26:28;0.00;;;0.00;;
19927;SDS011;10126;50.876;4.470;2023-09-07T10:28:29;0.00;;;0.00;;
19927;SDS011;10126;50.876;4.470;2023-09-07T10:30:29;0.05;;;0.05;;
19927;SDS011;10126;50.876;4.470;2023-09-07T10:32:41;0.00;;;0.00;;
19927;SDS011;10126;50.876;4.470;2023-09-07T10:34:42;0.00;;;0.00;;
19927;SDS011;10126;50.876;4.470;2023-09-07T10:36:43;0.10;;;0.10;;
19927;SDS011;10126;50.876;4.470;2023-09-07T10:38:44;0.10;;;0.10;;
19927;SDS011;10126;50.876;4.470;2023-09-07T10:40:45;0.00;;;0.00;;
19927;SDS011;10126;50.876;4.470;2023-09-07T10:42:45;0.10;;;0.10;;
19927;SDS011;10126;50.876;4.470;2023-09-07T10:44:46;0.00;;;0.00;;
19927;SDS011;10126;50.876;4.470;2023-09-07T10:46:46;0.00;;;0.00;;
19927;SDS011;10126;50.876;4.470;2023-09-07T10:48:51;0.00;;;0.00;;
19927;SDS011;10126;50.876;4.470;2023-09-07T10:50:53;0.00;;;0.00;;
19927;SDS011;10126;50.876;4.470;2023-09-07T10:52:54;0.00;;;0.00;;
19927;SDS011;10126;50.876;4.470;2023-09-07T10:54:55;0.00;;;0.00;;
19927;SDS011;10126;50.876;4.470;2023-09-07T10:56:57;0.00;;;0.00;;
19927;SDS011;10126;50.876;4.470;2023-09-07T10:59:08;0.00;;;0.00;;
19927;SDS011;10126;50.876;4.470;2023-09-07T11:01:09;0.10;;;0.10;;
19927;SDS011;10126;50.876;4.470;2023-09-07T11:03:10;0.10;;;0.10;;
19927;SDS011;10126;50.876;4.470;2023-09-07T11:05:11;0.10;;;0.10;;
19927;SDS011;10126;50.876;4.470;2023-09-07T11:07:11;0.00;;;0.00;;
19927;SDS011;10126;50.876;4.470;2023-09-07T11:09:13;0.00;;;0.00;;
19927;SDS011;10126;50.876;4.470;2023-09-07T11:11:14;0.00;;;0.00;;
19927;SDS011;10126;50.876;4.470;2023-09-07T11:13:16;0.10;;;0.10;;
19927;SDS011;10126;50.876;4.470;2023-09-07T11:15:18;0.00;;;0.00;;
19927;SDS011;10126;50.876;4.470;2023-09-07T11:17:25;0.00;;;0.00;;
19927;SDS011;10126;50.876;4.470;2023-09-07T11:19:27;0.00;;;0.00;;
19927;SDS011;10126;50.876;4.470;2023-09-07T11:21:31;0.00;;;0.00;;
19927;SDS011;10126;50.876;4.470;2023-09-07T11:23:35;0.00;;;0.00;;
19927;SDS011;10126;50.876;4.470;2023-09-07T11:25:38;0.05;;;0.05;;
19927;SDS011;10126;50.876;4.470;2023-09-07T11:27:39;0.00;;;0.00;;
19927;SDS011;10126;50.876;4.470;2023-09-07T11:29:40;0.00;;;0.00;;
19927;SDS011;10126;50.876;4.470;2023-09-07T11:31:42;0.00;;;0.00;;
19927;SDS011;10126;50.876;4.470;2023-09-07T11:33:44;0.00;;;0.00;;
19927;SDS011;10126;50.876;4.470;2023-09-07T11:35:47;0.00;;;0.00;;
19927;SDS011;10126;50.876;4.470;2023-09-07T11:37:51;0.10;;;0.10;;
19927;SDS011;10126;50.876;4.470;2023-09-07T11:39:52;0.00;;;0.00;;
19927;SDS011;10126;50.876;4.470;2023-09-07T11:41:52;0.10;;;0.10;;
19927;SDS011;10126;50.876;4.470;2023-09-07T11:43:53;0.00;;;0.00;;
19927;SDS011;10126;50.876;4.470;2023-09-07T11:45:53;0.00;;;0.00;;
19927;SDS011;10126;50.876;4.470;2023-09-07T11:47:54;0.00;;;0.00;;
19927;SDS011;10126;50.876;4.470;2023-09-07T11:49:55;0.00;;;0.00;;
19927;SDS011;10126;50.876;4.470;2023-09-07T11:51:55;0.00;;;0.00;;
19927;SDS011;10126;50.876;4.470;2023-09-07T11:53:56;0.00;;;0.00;;
19927;SDS011;10126;50.876;4.470;2023-09-07T11:55:57;0.10;;;0.10;;
19927;SDS011;10126;50.876;4.470;2023-09-07T11:57:58;0.03;;;0.03;;
19927;SDS011;10126;50.876;4.470;2023-09-07T11:59:58;0.00;;;0.00;;
19927;SDS011;10126;50.876;4.470;2023-09-07T12:01:59;0.00;;;0.00;;
19927;SDS011;10126;50.876;4.470;2023-09-07T12:04:00;0.00;;;0.00;;
19927;SDS011;10126;50.876;4.470;2023-09-07T12:06:01;0.05;;;0.05;;
19927;SDS011;10126;50.876;4.470;2023-09-07T12:08:03;0.00;;;0.00;;
19927;SDS011;10126;50.876;4.470;2023-09-07T12:10:06;0.00;;;0.00;;
19927;SDS011;10126;50.876;4.470;2023-09-07T12:12:10;0.10;;;0.10;;